Time;durP1;ratioP1;P1;durP2;ratioP2;P2;SDS_P1;SDS_P2;PMS_P1;PMS_P2;Temp;Humidity;BMP_temperature;BMP_pressure;BME280_temperature;BME280_humidity;BME280_pressure;Samples;Min_cycle;Max_cycle;Signal;HPM_P1;HPM_P2
2022/04/08 00:01:41;;;;;;;7.72;2.53;;;12.50;99.90;;;;;;5033143;28;20229;-81
2022/04/08 00:04:07;;;;;;;3.75;2.50;;;12.50;99.90;;;;;;5014865;28;20223;-81
2022/04/08 00:06:33;;;;;;;4.68;2.70;;;12.50;99.90;;;;;;5015699;28;20625;-81
2022/04/08 00:08:59;;;;;;;5.18;3.08;;;12.40;99.90;;;;;;5032415;28;20172;-82
2022/04/08 00:11:25;;;;;;;4.82;2.90;;;12.40;99.90;;;;;;4999149;28;20471;-80
2022/04/08 00:13:53;;;;;;;6.25;2.92;;;12.50;99.90;;;;;;5001924;28;20204;-81
2022/04/08 00:16:20;;;;;;;5.75;3.08;;;12.40;99.90;;;;;;4999969;28;20196;-81
2022/04/08 00:18:46;;;;;;;6.97;3.40;;;12.50;99.90;;;;;;5018137;28;20274;-81
2022/04/08 00:21:12;;;;;;;5.45;2.50;;;12.50;99.90;;;;;;5018716;28;20192;-81
2022/04/08 00:23:38;;;;;;;4.68;2.60;;;12.50;99.90;;;;;;5017338;28;20176;-80
2022/04/08 00:26:04;;;;;;;5.10;2.80;;;12.40;99.90;;;;;;4998928;28;20185;-81
2022/04/08 00:28:30;;;;;;;1.58;1.48;;;12.40;99.90;;;;;;5032875;28;20633;-81
2022/04/08 00:30:55;;;;;;;2.40;1.70;;;12.20;99.90;;;;;;5033072;28;20532;-80
2022/04/08 00:33:21;;;;;;;2.63;0.98;;;11.70;99.90;;;;;;5032544;28;20675;-80
2022/04/08 00:35:46;;;;;;;2.45;1.25;;;11.40;99.90;;;;;;5015044;28;20180;-81
2022/04/08 00:38:12;;;;;;;1.70;0.97;;;11.00;99.90;;;;;;5032809;28;20637;-81
2022/04/08 00:40:38;;;;;;;2.08;0.80;;;10.80;99.90;;;;;;5015028;28;20219;-80
2022/04/08 00:43:17;;;;;;;1.07;0.70;;;10.60;99.90;;;;;;5032179;28;20169;-81
2022/04/08 00:45:44;;;;;;;0.80;0.80;;;10.40;99.90;;;;;;5015216;28;20226;-80
2022/04/08 00:48:10;;;;;;;0.83;0.80;;;10.10;99.90;;;;;;5014898;28;20267;-81
2022/04/08 00:50:38;;;;;;;1.03;0.90;;;10.00;99.90;;;;;;5015053;28;20603;-80
2022/04/08 00:53:05;;;;;;;2.37;1.03;;;9.90;99.90;;;;;;5034142;28;20239;-84
2022/04/08 00:55:31;;;;;;;2.33;1.70;;;9.70;99.90;;;;;;5036460;28;20303;-79
2022/04/08 00:58:02;;;;;;;1.60;1.23;;;9.60;99.90;;;;;;5036363;28;20264;-80
2022/04/08 01:00:31;;;;;;;1.77;0.70;;;9.50;99.90;;;;;;5036184;28;20247;-79
2022/04/08 01:02:57;;;;;;;0.70;0.70;;;9.40;99.90;;;;;;5036383;28;20172;-80
2022/04/08 01:05:24;;;;;;;2.57;0.90;;;9.30;99.90;;;;;;5018110;28;20184;-80
2022/04/08 01:07:50;;;;;;;1.37;0.80;;;9.20;99.90;;;;;;5018450;28;20208;-80
2022/04/08 01:10:15;;;;;;;2.40;1.10;;;9.10;99.90;;;;;;5018014;28;20633;-80
2022/04/08 01:12:41;;;;;;;3.00;0.97;;;9.00;99.90;;;;;;5017878;28;20236;-80
2022/04/08 01:15:08;;;;;;;1.63;1.00;;;9.00;99.90;;;;;;5018069;28;20646;-85
2022/04/08 01:17:34;;;;;;;6.13;1.10;;;8.80;99.90;;;;;;5036329;28;20196;-80
2022/04/08 01:19:59;;;;;;;3.53;1.20;;;8.80;99.90;;;;;;5018066;28;20188;-80
2022/04/08 01:22:26;;;;;;;2.23;1.00;;;8.70;99.90;;;;;;5017677;28;20208;-80
2022/04/08 01:25:03;;;;;;;2.67;1.20;;;8.60;99.90;;;;;;5017852;28;20642;-80
2022/04/08 01:27:28;;;;;;;1.73;0.93;;;8.50;99.90;;;;;;5035163;28;20177;-80
2022/04/08 01:29:55;;;;;;;2.70;1.10;;;8.40;99.90;;;;;;5001630;28;20200;-80
2022/04/08 01:32:21;;;;;;;1.50;1.00;;;8.30;99.90;;;;;;5018118;28;20263;-80
2022/04/08 01:34:49;;;;;;;1.20;1.00;;;8.30;99.90;;;;;;5035530;28;20322;-80
2022/04/08 01:37:15;;;;;;;2.17;1.07;;;8.20;99.90;;;;;;5017998;28;20180;-80
2022/04/08 01:39:41;;;;;;;1.17;1.07;;;8.20;99.90;;;;;;5035273;28;20185;-80
2022/04/08 01:42:07;;;;;;;2.27;1.40;;;8.10;99.90;;;;;;5035438;28;20242;-80
2022/04/08 01:44:34;;;;;;;1.93;1.20;;;8.10;99.90;;;;;;5034923;28;20269;-80
2022/04/08 01:46:59;;;;;;;1.73;1.10;;;8.10;99.90;;;;;;5035200;28;20181;-80
2022/04/08 01:49:25;;;;;;;2.47;1.20;;;8.00;99.90;;;;;;5017389;28;20185;-81
2022/04/08 01:51:51;;;;;;;5.23;1.20;;;8.00;99.90;;;;;;5002052;28;20552;-81
2022/04/08 01:54:16;;;;;;;2.30;1.17;;;8.00;99.90;;;;;;5035198;28;20204;-81
2022/04/08 01:56:42;;;;;;;3.60;1.33;;;8.00;99.90;;;;;;5017775;28;20259;-81
2022/04/08 01:59:08;;;;;;;1.30;0.80;;;8.00;99.90;;;;;;5035645;28;20222;-83
2022/04/08 02:01:34;;;;;;;2.17;1.30;;;8.00;99.90;;;;;;5017774;28;20220;-81
2022/04/08 02:03:59;;;;;;;4.60;1.77;;;7.90;99.90;;;;;;5016851;28;20796;-81
2022/04/08 02:06:25;;;;;;;3.47;1.40;;;7.90;99.90;;;;;;5000812;28;20181;-81
2022/04/08 02:08:53;;;;;;;3.47;2.00;;;7.90;99.90;;;;;;5017066;28;20180;-82
2022/04/08 02:11:20;;;;;;;4.37;1.90;;;7.90;99.90;;;;;;5034536;28;20172;-81
2022/04/08 02:13:46;;;;;;;5.70;1.90;;;7.90;99.90;;;;;;5035120;28;20255;-82
2022/04/08 02:16:12;;;;;;;2.13;1.10;;;7.90;99.90;;;;;;5017186;28;20227;-82
2022/04/08 02:18:38;;;;;;;1.47;1.10;;;7.90;99.90;;;;;;5016761;28;20185;-81
2022/04/08 02:21:04;;;;;;;3.20;2.07;;;7.90;99.90;;;;;;5000848;28;20192;-81
2022/04/08 02:23:31;;;;;;;3.20;1.60;;;7.90;99.90;;;;;;5000600;28;20275;-81
2022/04/08 02:25:56;;;;;;;2.23;1.30;;;7.90;99.90;;;;;;5034722;28;20181;-81
2022/04/08 02:28:22;;;;;;;3.37;2.00;;;7.80;99.90;;;;;;5034276;28;20652;-81
2022/04/08 02:30:48;;;;;;;1.00;0.90;;;7.80;99.90;;;;;;5034810;28;20259;-82
2022/04/08 02:33:13;;;;;;;1.20;1.10;;;7.90;99.90;;;;;;5000601;28;20688;-81
2022/04/08 02:35:39;;;;;;;1.73;1.20;;;7.90;99.90;;;;;;5034243;28;20247;-81
2022/04/08 02:38:05;;;;;;;3.67;1.40;;;7.90;99.90;;;;;;5034112;28;20651;-81
2022/04/08 02:40:30;;;;;;;5.63;1.80;;;7.90;99.90;;;;;;4999936;28;20562;-81
2022/04/08 02:42:56;;;;;;;4.07;2.33;;;7.90;99.90;;;;;;4984074;28;20629;-81
2022/04/08 02:45:22;;;;;;;4.27;1.83;;;7.90;99.90;;;;;;5016387;28;20234;-81
2022/04/08 02:47:47;;;;;;;3.00;1.30;;;7.80;99.90;;;;;;5016431;28;20212;-81
2022/04/08 02:50:13;;;;;;;4.13;1.90;;;7.90;99.90;;;;;;5034550;28;20185;-80
2022/04/08 02:52:39;;;;;;;8.13;2.47;;;7.80;99.90;;;;;;5034216;28;20184;-80
2022/04/08 02:55:05;;;;;;;4.77;2.17;;;7.90;99.90;;;;;;5034078;28;20212;-80
2022/04/08 02:57:31;;;;;;;3.07;2.00;;;7.80;99.90;;;;;;5033836;28;20188;-80
2022/04/08 02:59:59;;;;;;;8.13;2.03;;;7.80;99.90;;;;;;5012462;28;20190;-80
2022/04/08 03:02:24;;;;;;;3.77;1.90;;;9.60;99.90;;;;;;5033899;28;20251;-81
2022/04/08 03:04:51;;;;;;;3.60;2.10;;;7.70;99.90;;;;;;4998748;28;20204;-81
2022/04/08 03:07:17;;;;;;;2.23;1.37;;;7.70;99.90;;;;;;5033895;28;20192;-81
2022/04/08 03:09:43;;;;;;;4.13;2.07;;;7.70;99.90;;;;;;5047381;28;20198;-79
2022/04/08 03:12:09;;;;;;;6.13;2.00;;;7.70;99.90;;;;;;5034798;28;20595;-81
2022/04/08 03:14:35;;;;;;;3.80;1.83;;;7.60;99.90;;;;;;5023235;28;20216;-81
2022/04/08 03:17:01;;;;;;;6.20;2.43;;;7.70;99.90;;;;;;5026540;28;20192;-83
2022/04/08 03:19:27;;;;;;;4.97;2.60;;;8.10;99.90;;;;;;5006589;28;20642;-81
2022/04/08 03:21:54;;;;;;;5.00;1.93;;;7.70;99.90;;;;;;5007934;28;20212;-84
2022/04/08 03:24:19;;;;;;;6.37;2.07;;;7.70;99.90;;;;;;5013444;28;20216;-80
2022/04/08 03:26:48;;;;;;;5.90;2.17;;;7.80;99.90;;;;;;5008158;28;21045;-84
2022/04/08 03:29:13;;;;;;;2.23;1.57;;;7.70;99.90;;;;;;5016205;28;20279;-82
2022/04/08 03:31:39;;;;;;;3.47;1.80;;;7.30;99.90;;;;;;4975841;28;20619;-80
2022/04/08 03:34:05;;;;;;;2.67;1.90;;;7.80;99.90;;;;;;5010991;28;20209;-81
2022/04/08 03:36:30;;;;;;;2.17;1.70;;;7.80;99.90;;;;;;5000569;28;20648;-81
2022/04/08 03:38:56;;;;;;;1.37;1.10;;;7.70;99.90;;;;;;5027455;28;20199;-82
2022/04/08 03:41:21;;;;;;;3.77;2.20;;;7.80;99.90;;;;;;5025612;28;20199;-81
2022/04/08 03:43:47;;;;;;;2.70;1.87;;;7.80;99.90;;;;;;5009522;28;20277;-82
2022/04/08 03:46:13;;;;;;;3.30;2.97;;;7.90;99.90;;;;;;4995713;28;20189;-81
2022/04/08 03:48:42;;;;;;;2.93;1.97;;;7.90;99.90;;;;;;5031319;28;20188;-79
2022/04/08 03:51:08;;;;;;;4.63;2.80;;;8.00;99.90;;;;;;5033492;28;20176;-80
2022/04/08 03:53:34;;;;;;;7.63;2.40;;;8.00;99.90;;;;;;5015346;28;20532;-79
2022/04/08 03:56:02;;;;;;;6.27;4.20;;;7.90;99.90;;;;;;5033114;28;20339;-80
2022/04/08 03:58:31;;;;;;;3.53;2.27;;;7.90;99.90;;;;;;5033195;28;20184;-81
2022/04/08 04:00:57;;;;;;;5.63;1.90;;;7.90;99.90;;;;;;5033018;28;20606;-80
2022/04/08 04:03:22;;;;;;;6.63;1.97;;;7.90;99.90;;;;;;5015482;28;20204;-80
2022/04/08 04:05:48;;;;;;;4.77;1.97;;;7.80;99.90;;;;;;5015155;28;20188;-80
2022/04/08 04:08:18;;;;;;;3.03;2.10;;;7.80;99.90;;;;;;5015405;28;20188;-80
2022/04/08 04:10:48;;;;;;;3.60;2.13;;;7.80;99.90;;;;;;5032663;28;20256;-80
2022/04/08 04:13:14;;;;;;;4.67;1.90;;;7.80;99.90;;;;;;5032894;28;20224;-80
2022/04/08 04:15:40;;;;;;;4.13;2.60;;;7.80;99.90;;;;;;5032566;28;20208;-80
2022/04/08 04:18:06;;;;;;;3.77;1.73;;;7.70;99.90;;;;;;5015106;28;20188;-80
2022/04/08 04:20:33;;;;;;;6.47;1.80;;;7.70;99.90;;;;;;5030996;28;20201;-80
2022/04/08 04:22:58;;;;;;;3.43;1.63;;;7.70;99.90;;;;;;5032241;28;20188;-79
2022/04/08 04:25:25;;;;;;;1.67;1.20;;;7.70;99.90;;;;;;5032456;28;20641;-80
2022/04/08 04:27:51;;;;;;;2.57;1.40;;;7.70;99.90;;;;;;5001526;28;20609;-79
2022/04/08 04:30:17;;;;;;;4.33;1.40;;;7.80;99.90;;;;;;5002400;28;20263;-80
2022/04/08 04:32:42;;;;;;;1.90;1.27;;;7.80;99.90;;;;;;5018930;28;20771;-80
2022/04/08 04:35:08;;;;;;;1.80;1.30;;;7.80;99.90;;;;;;5019052;28;20212;-80
2022/04/08 04:37:35;;;;;;;2.40;1.63;;;7.80;99.90;;;;;;5036320;28;20192;-80
2022/04/08 04:40:02;;;;;;;2.20;1.27;;;7.80;99.90;;;;;;5036341;28;20238;-80
2022/04/08 04:42:28;;;;;;;1.70;1.20;;;7.80;99.90;;;;;;5036624;28;20204;-80
2022/04/08 04:44:57;;;;;;;5.10;1.00;;;7.80;99.90;;;;;;5002035;28;20560;-80
2022/04/08 04:47:23;;;;;;;2.40;1.63;;;7.90;99.90;;;;;;5001964;28;20627;-80
2022/04/08 04:49:49;;;;;;;1.97;1.20;;;7.90;99.90;;;;;;5018337;28;20181;-80
2022/04/08 04:52:15;;;;;;;2.83;1.20;;;7.90;99.90;;;;;;5018388;28;20534;-80
2022/04/08 04:54:41;;;;;;;6.77;1.43;;;7.90;99.90;;;;;;5035416;28;20295;-80
2022/04/08 04:57:07;;;;;;;3.27;1.53;;;7.90;99.90;;;;;;5035505;28;20687;-80
2022/04/08 04:59:34;;;;;;;3.97;1.50;;;7.80;99.90;;;;;;5018120;28;20185;-81
2022/04/08 05:01:59;;;;;;;2.87;1.67;;;7.70;99.90;;;;;;5035046;28;20203;-81
2022/04/08 05:04:25;;;;;;;1.47;0.90;;;7.80;99.90;;;;;;5035325;28;20535;-80
2022/04/08 05:06:50;;;;;;;3.83;1.30;;;7.60;99.90;;;;;;5034879;28;20655;-80
2022/04/08 05:09:17;;;;;;;7.50;1.33;;;;;;;;;;5001306;28;20572;-80
2022/04/08 05:11:42;;;;;;;1.67;1.00;;;7.40;99.90;;;;;;5035096;28;20181;-80
2022/04/08 05:14:08;;;;;;;1.50;1.00;;;7.30;99.90;;;;;;5036166;28;20234;-80
2022/04/08 05:16:34;;;;;;;5.07;1.50;;;7.20;99.90;;;;;;5036276;28;20222;-79
2022/04/08 05:19:00;;;;;;;1.90;1.10;;;7.20;99.90;;;;;;5017776;28;20196;-80
2022/04/08 05:21:29;;;;;;;1.87;1.10;;;7.10;99.90;;;;;;5035655;28;20204;-81
2022/04/08 05:23:55;;;;;;;2.63;1.20;;;6.90;99.90;;;;;;5035199;28;20184;-80
2022/04/08 05:26:20;;;;;;;1.63;1.20;;;7.00;99.90;;;;;;5017802;28;20195;-79
2022/04/08 05:28:46;;;;;;;3.07;1.80;;;6.90;99.90;;;;;;5017402;28;20219;-80
2022/04/08 05:31:12;;;;;;;1.50;1.10;;;6.90;99.90;;;;;;5035066;28;20235;-80
2022/04/08 05:33:38;;;;;;;4.60;1.70;;;6.90;99.90;;;;;;5035367;28;20267;-80
2022/04/08 05:36:04;;;;;;;4.17;1.23;;;6.90;99.90;;;;;;5017296;28;20279;-80
2022/04/08 05:38:29;;;;;;;4.87;1.50;;;7.00;99.90;;;;;;5016968;28;20215;-81
2022/04/08 05:40:55;;;;;;;4.73;1.17;;;7.10;99.90;;;;;;5033321;28;20188;-81
2022/04/08 05:43:21;;;;;;;3.20;1.20;;;7.00;99.90;;;;;;5035751;28;20271;-81
2022/04/08 05:45:46;;;;;;;2.80;1.43;;;7.10;99.90;;;;;;5030170;28;20586;-80
2022/04/08 05:48:12;;;;;;;6.10;1.80;;;7.10;99.90;;;;;;5029998;28;20195;-80
2022/04/08 05:50:37;;;;;;;4.23;1.40;;;7.10;99.90;;;;;;5030361;28;20191;-80
2022/04/08 05:53:03;;;;;;;2.30;1.17;;;7.10;99.90;;;;;;5042786;28;20195;-80
2022/04/08 05:55:34;;;;;;;3.90;1.10;;;7.20;99.90;;;;;;5036081;28;20642;-80
2022/04/08 05:57:59;;;;;;;3.27;1.40;;;7.40;99.90;;;;;;5017034;28;20616;-80
2022/04/08 06:00:25;;;;;;;2.23;1.30;;;7.50;99.90;;;;;;5034878;28;20235;-80
2022/04/08 06:02:53;;;;;;;1.70;1.20;;;7.60;99.90;;;;;;5016460;28;20180;-80
2022/04/08 06:05:19;;;;;;;5.00;1.60;;;7.60;99.90;;;;;;5033666;28;20267;-81
2022/04/08 06:07:50;;;;;;;2.23;1.10;;;7.80;99.90;;;;;;5033704;28;20279;-86
2022/04/08 06:10:18;;;;;;;3.70;1.60;;;;;;;;;;5034375;28;20172;-79
2022/04/08 06:12:47;;;;;;;3.67;1.67;;;6.80;99.90;;;;;;5033929;28;20221;-80
2022/04/08 06:15:13;;;;;;;3.23;1.30;;;9.80;99.90;;;;;;5031896;28;20205;-81
2022/04/08 06:17:39;;;;;;;3.37;1.33;;;;;;;;;;5003326;28;20246;-80
2022/04/08 06:20:07;;;;;;;5.73;1.23;;;8.50;99.90;;;;;;5033364;28;20180;-80
2022/04/08 06:22:32;;;;;;;3.33;1.40;;;8.70;99.90;;;;;;5034081;28;20188;-79
2022/04/08 06:24:58;;;;;;;3.73;1.77;;;8.70;99.90;;;;;;5034350;28;20185;-80
2022/04/08 06:27:24;;;;;;;4.60;1.60;;;;;;;;;;5017306;28;20649;-80
2022/04/08 06:29:50;;;;;;;1.50;1.30;;;8.80;99.90;;;;;;5034389;28;20185;-80
2022/04/08 06:32:15;;;;;;;3.60;1.20;;;8.90;99.90;;;;;;5034127;28;20544;-80
2022/04/08 06:34:41;;;;;;;3.30;1.40;;;8.90;99.90;;;;;;5016854;28;20212;-79
2022/04/08 06:37:08;;;;;;;2.93;1.30;;;9.00;99.90;;;;;;5016559;28;20209;-80
2022/04/08 06:39:34;;;;;;;4.93;1.10;;;8.80;99.90;;;;;;5034536;28;20189;-79
2022/04/08 06:41:59;;;;;;;1.07;1.03;;;8.70;99.90;;;;;;5034146;28;20268;-80
2022/04/08 06:44:25;;;;;;;3.63;1.63;;;8.50;99.90;;;;;;5034291;28;20207;-80
2022/04/08 06:46:50;;;;;;;2.17;0.93;;;8.40;99.90;;;;;;5016371;28;20189;-85
2022/04/08 06:49:19;;;;;;;4.93;1.43;;;8.30;99.90;;;;;;5034046;28;20247;-80
2022/04/08 06:51:45;;;;;;;8.03;1.90;;;8.30;99.90;;;;;;5033205;28;20271;-79
2022/04/08 06:54:10;;;;;;;3.77;2.03;;;8.40;99.90;;;;;;4999874;28;21053;-80
2022/04/08 06:56:36;;;;;;;7.93;2.00;;;8.40;99.90;;;;;;5000287;28;20590;-80
2022/04/08 06:59:02;;;;;;;5.23;2.07;;;8.40;99.90;;;;;;5016244;28;20227;-80
2022/04/08 07:01:29;;;;;;;9.30;2.30;;;8.40;99.90;;;;;;5016495;28;20180;-80
2022/04/08 07:03:55;;;;;;;6.90;2.50;;;8.40;99.90;;;;;;5016269;28;20192;-80
2022/04/08 07:06:21;;;;;;;7.07;1.90;;;8.40;99.90;;;;;;5016079;28;20271;-80
2022/04/08 07:08:47;;;;;;;7.20;2.37;;;8.40;99.90;;;;;;5033800;28;20211;-80
2022/04/08 07:11:13;;;;;;;9.30;1.73;;;8.40;99.90;;;;;;5033458;28;20681;-80
2022/04/08 07:13:41;;;;;;;5.60;2.13;;;;;;;;;;4999509;28;20585;-80
2022/04/08 07:16:07;;;;;;;8.93;2.43;;;;;;;;;;5033614;28;20243;-80
2022/04/08 07:18:33;;;;;;;5.97;2.10;;;8.60;99.90;;;;;;5016301;28;20220;-80
2022/04/08 07:20:59;;;;;;;7.77;2.63;;;8.60;99.90;;;;;;5033458;28;20263;-80
2022/04/08 07:23:24;;;;;;;7.73;2.50;;;8.60;99.90;;;;;;5033430;28;20518;-80
2022/04/08 07:25:50;;;;;;;7.27;1.83;;;8.70;99.90;;;;;;5033642;28;20189;-80
2022/04/08 07:28:16;;;;;;;7.80;2.60;;;8.80;99.90;;;;;;5033114;28;20185;-80
2022/04/08 07:30:42;;;;;;;6.10;2.00;;;8.90;99.90;;;;;;5033472;28;20637;-80
2022/04/08 07:33:08;;;;;;;7.83;2.40;;;9.10;99.90;;;;;;5033196;28;20180;-80
2022/04/08 07:35:33;;;;;;;5.93;2.00;;;9.30;99.90;;;;;;5015815;28;20208;-81
2022/04/08 07:38:03;;;;;;;6.70;2.43;;;;;;;;;;5033243;28;20258;-81
2022/04/08 07:40:29;;;;;;;5.17;1.87;;;9.50;99.90;;;;;;5033334;28;20183;-80
2022/04/08 07:42:55;;;;;;;6.27;2.07;;;9.60;99.90;;;;;;5015780;28;20188;-80
2022/04/08 07:45:24;;;;;;;4.00;1.40;;;9.70;99.90;;;;;;5015229;28;20210;-80
2022/04/08 07:47:50;;;;;;;6.70;1.60;;;9.80;99.90;;;;;;5032643;28;20184;-80
2022/04/08 07:50:15;;;;;;;2.93;1.30;;;10.00;99.90;;;;;;5032728;28;20239;-80
2022/04/08 07:52:42;;;;;;;6.90;1.73;;;10.00;99.90;;;;;;5014118;28;20199;-80
2022/04/08 07:55:09;;;;;;;6.57;1.43;;;10.00;99.90;;;;;;5031705;28;20196;-81
2022/04/08 07:57:45;;;;;;;5.37;1.50;;;10.00;99.90;;;;;;5030174;28;20624;-81
2022/04/08 08:00:15;;;;;;;4.60;1.80;;;10.20;99.90;;;;;;5031755;28;20203;-81
2022/04/08 08:02:41;;;;;;;4.73;1.73;;;10.30;99.90;;;;;;5013950;28;20192;-80
2022/04/08 08:05:08;;;;;;;6.80;1.70;;;10.30;99.90;;;;;;4998913;28;20188;-80
2022/04/08 08:07:45;;;;;;;6.30;1.50;;;10.20;99.90;;;;;;5015039;28;20283;-80
2022/04/08 08:10:14;;;;;;;8.23;2.07;;;10.40;99.90;;;;;;5032422;28;20213;-81
2022/04/08 08:12:40;;;;;;;3.13;1.20;;;10.60;99.90;;;;;;5033163;28;20228;-80
2022/04/08 08:15:06;;;;;;;4.60;1.17;;;10.70;99.90;;;;;;5032680;28;20676;-81
2022/04/08 08:17:31;;;;;;;3.30;1.20;;;10.40;97.90;;;;;;5032621;28;20668;-80
2022/04/08 08:19:57;;;;;;;5.80;1.20;;;10.30;99.90;;;;;;5014834;28;20181;-80
2022/04/08 08:22:23;;;;;;;1.10;1.00;;;10.30;97.40;;;;;;4998721;28;20191;-80
2022/04/08 08:24:49;;;;;;;5.73;1.47;;;10.20;97.10;;;;;;5033154;28;20189;-80
2022/04/08 08:27:15;;;;;;;3.73;1.27;;;10.20;97.60;;;;;;5032503;28;20184;-80
2022/04/08 08:29:41;;;;;;;2.33;1.47;;;10.20;97.20;;;;;;5014866;28;20195;-80
2022/04/08 08:32:07;;;;;;;6.37;1.57;;;10.10;98.70;;;;;;5014814;28;20180;-81
2022/04/08 08:34:32;;;;;;;6.27;1.27;;;10.00;99.90;;;;;;5032805;28;20208;-81
2022/04/08 08:36:59;;;;;;;5.27;1.60;;;9.90;99.90;;;;;;5015067;28;20267;-81
2022/04/08 08:39:26;;;;;;;3.60;1.40;;;10.00;99.90;;;;;;5015017;28;20478;-81
2022/04/08 08:41:52;;;;;;;1.57;1.20;;;10.20;99.90;;;;;;5032450;28;20191;-81
2022/04/08 08:44:19;;;;;;;4.13;1.30;;;10.40;99.90;;;;;;5014553;28;20271;-82
2022/04/08 08:46:45;;;;;;;2.50;1.33;;;10.40;99.90;;;;;;5015214;28;20231;-81
2022/04/08 08:49:11;;;;;;;1.83;1.30;;;10.40;99.80;;;;;;5032534;28;20272;-81
2022/04/08 08:51:41;;;;;;;4.13;1.23;;;10.40;99.90;;;;;;4998552;28;20263;-81
2022/04/08 08:54:07;;;;;;;6.73;1.40;;;10.30;96.90;;;;;;5032226;28;20612;-86
2022/04/08 08:56:32;;;;;;;3.53;1.37;;;10.60;96.60;;;;;;5032608;28;20180;-80
2022/04/08 08:58:58;;;;;;;2.47;1.20;;;11.00;96.90;;;;;;5015048;28;20208;-80
2022/04/08 09:01:23;;;;;;;2.50;1.30;;;11.20;93.80;;;;;;4998424;28;20544;-80
2022/04/08 09:03:49;;;;;;;3.93;1.37;;;11.10;91.60;;;;;;5015314;28;20185;-80
2022/04/08 09:06:16;;;;;;;1.90;1.20;;;11.00;89.30;;;;;;5014569;28;20212;-81
2022/04/08 09:08:42;;;;;;;3.77;1.10;;;11.10;89.00;;;;;;5033453;28;20177;-80
2022/04/08 09:11:08;;;;;;;4.57;1.37;;;11.00;88.00;;;;;;5033803;28;20538;-80
2022/04/08 09:13:45;;;;;;;3.50;1.47;;;10.90;90.40;;;;;;5033425;28;20274;-80
2022/04/08 09:16:11;;;;;;;3.80;1.50;;;10.80;91.50;;;;;;5018757;28;20672;-82
2022/04/08 09:18:41;;;;;;;3.63;1.20;;;10.70;92.90;;;;;;5036239;28;20172;-81
2022/04/08 09:21:08;;;;;;;4.67;1.40;;;10.70;93.60;;;;;;5035809;28;20160;-80
2022/04/08 09:23:34;;;;;;;1.97;1.03;;;10.80;92.50;;;;;;5017949;28;20173;-80
2022/04/08 09:26:05;;;;;;;2.73;1.47;;;10.80;92.30;;;;;;5035654;28;20654;-80
2022/04/08 09:28:37;;;;;;;5.00;1.30;;;10.80;91.40;;;;;;5017662;28;20177;-81
2022/04/08 09:31:04;;;;;;;3.70;1.47;;;10.70;87.60;;;;;;5035526;28;20179;-80
2022/04/08 09:33:30;;;;;;;2.00;1.13;;;10.80;90.70;;;;;;5018226;28;20176;-81
2022/04/08 09:35:58;;;;;;;4.30;1.10;;;10.90;90.20;;;;;;5035572;28;20228;-80
2022/04/08 09:38:30;;;;;;;2.35;1.30;;;10.90;91.20;;;;;;5035517;28;20177;-81
2022/04/08 09:41:01;;;;;;;3.93;1.40;;;11.00;91.10;;;;;;5035761;28;20173;-80
2022/04/08 09:43:32;;;;;;;1.97;1.13;;;11.00;91.20;;;;;;5035550;28;20664;-81
2022/04/08 09:46:13;;;;;;;1.95;1.13;;;11.00;88.00;;;;;;5035282;28;20168;-82
2022/04/08 09:48:39;;;;;;;5.03;1.37;;;11.10;89.10;;;;;;5017788;28;20255;-81
2022/04/08 09:51:09;;;;;;;5.80;1.67;;;11.40;90.40;;;;;;5001021;28;20276;-81
2022/04/08 09:53:40;;;;;;;2.42;1.13;;;11.40;84.70;;;;;;5018247;28;20169;-80
2022/04/08 09:56:12;;;;;;;3.35;1.55;;;11.40;84.70;;;;;;5035529;28;20200;-81
2022/04/08 09:58:40;;;;;;;3.53;1.20;;;11.20;85.40;;;;;;5034760;28;20165;-81
2022/04/08 10:01:07;;;;;;;4.20;1.10;;;11.10;90.40;;;;;;5035206;28;20208;-81
2022/04/08 10:03:34;;;;;;;3.80;1.07;;;10.90;93.40;;;;;;5034857;28;20180;-80
2022/04/08 10:06:00;;;;;;;3.03;1.17;;;10.50;99.20;;;;;;5017477;28;20528;-80
2022/04/08 10:08:27;;;;;;;4.47;1.30;;;10.30;99.90;;;;;;5035415;28;20195;-81
2022/04/08 10:11:06;;;;;;;1.53;1.00;;;10.20;99.90;;;;;;5035395;28;20263;-81
2022/04/08 10:13:37;;;;;;;3.97;1.23;;;10.30;99.90;;;;;;5016619;28;20719;-81
2022/04/08 10:16:18;;;;;;;2.80;1.13;;;10.40;99.90;;;;;;5035318;28;20189;-81
2022/04/08 10:18:45;;;;;;;3.03;1.33;;;10.40;99.90;;;;;;5001191;28;20271;-80
2022/04/08 10:21:11;;;;;;;1.70;1.20;;;10.30;99.90;;;;;;5000948;28;20206;-82
2022/04/08 10:23:53;;;;;;;2.70;1.20;;;10.30;99.90;;;;;;5034183;28;20536;-80
2022/04/08 10:26:24;;;;;;;3.53;1.20;;;10.30;99.90;;;;;;5032078;28;20211;-86
2022/04/08 10:28:55;;;;;;;1.17;0.97;;;10.40;97.20;;;;;;5034847;28;20165;-81
2022/04/08 10:31:25;;;;;;;2.20;1.30;;;10.70;99.20;;;;;;5034641;28;20203;-85
2022/04/08 10:33:54;;;;;;;3.17;1.37;;;10.90;96.70;;;;;;5035169;28;20733;-80
2022/04/08 10:36:37;;;;;;;3.00;1.60;;;11.00;94.20;;;;;;5034781;28;20299;-82
2022/04/08 10:39:12;;;;;;;3.17;1.30;;;11.10;89.80;;;;;;5034987;28;20633;-81
2022/04/08 10:41:50;;;;;;;3.30;1.13;;;11.20;90.30;;;;;;5001263;28;20176;-80
2022/04/08 10:44:17;;;;;;;2.10;1.27;;;11.50;89.90;;;;;;5034542;28;20207;-80
2022/04/08 10:46:50;;;;;;;2.47;1.40;;;11.50;88.00;;;;;;5034629;28;20194;-80
2022/04/08 10:49:16;;;;;;;3.40;1.08;;;11.30;81.50;;;;;;5017094;28;20184;-80
2022/04/08 10:51:49;;;;;;;1.63;0.73;;;11.30;79.20;;;;;;5033737;28;20172;-80
2022/04/08 10:54:16;;;;;;;0.70;0.70;;;11.60;77.40;;;;;;5033803;28;20196;-82
2022/04/08 10:56:42;;;;;;;1.20;0.88;;;11.90;76.30;;;;;;5033822;28;20263;-80
2022/04/08 10:59:08;;;;;;;0.80;0.80;;;12.20;77.30;;;;;;5034435;28;20520;-81
2022/04/08 11:01:44;;;;;;;2.20;1.05;;;12.30;73.90;;;;;;5016051;28;20645;-81
2022/04/08 11:04:10;;;;;;;1.35;0.70;;;12.30;75.00;;;;;;5033373;28;20218;-81
2022/04/08 11:06:37;;;;;;;1.33;1.00;;;12.00;72.90;;;;;;5016026;28;20267;-81
2022/04/08 11:09:08;;;;;;;6.25;1.30;;;11.70;75.10;;;;;;5016414;28;20184;-81
2022/04/08 11:11:36;;;;;;;4.25;1.38;;;11.60;73.80;;;;;;5032239;28;20181;-81
2022/04/08 11:14:04;;;;;;;4.15;0.70;;;11.60;76.80;;;;;;5032545;28;20208;-82
2022/04/08 11:16:40;;;;;;;1.80;1.10;;;11.50;75.20;;;;;;5029621;28;20188;-82
2022/04/08 11:19:07;;;;;;;3.20;1.00;;;11.30;75.90;;;;;;5032479;28;20255;-80
2022/04/08 11:21:37;;;;;;;5.78;1.00;;;11.20;81.00;;;;;;5015226;28;20184;-80
2022/04/08 11:24:04;;;;;;;1.20;0.80;;;11.10;84.80;;;;;;5015975;28;20242;-81
2022/04/08 11:26:41;;;;;;;0.98;0.82;;;11.00;88.60;;;;;;5015646;28;20184;-81
2022/04/08 11:29:11;;;;;;;1.88;0.95;;;11.00;87.60;;;;;;5033514;28;20249;-80
2022/04/08 11:31:38;;;;;;;2.03;1.30;;;11.30;90.50;;;;;;5032584;28;20180;-80
2022/04/08 11:34:04;;;;;;;2.30;1.47;;;11.60;90.00;;;;;;5033964;28;20295;-80
2022/04/08 11:36:30;;;;;;;4.70;1.30;;;11.70;88.30;;;;;;5040646;28;20214;-82
2022/04/08 11:38:56;;;;;;;4.70;1.30;;;11.60;90.30;;;;;;5022284;28;20189;-80
2022/04/08 11:41:23;;;;;;;5.25;1.00;;;11.60;88.60;;;;;;5019373;28;20539;-81
2022/04/08 11:43:49;;;;;;;0.80;0.80;;;11.40;88.80;;;;;;5018028;28;20211;-80
2022/04/08 11:46:16;;;;;;;3.90;1.10;;;11.30;87.50;;;;;;5033373;28;20177;-80
2022/04/08 11:48:43;;;;;;;1.83;1.03;;;11.30;82.30;;;;;;5014760;28;20618;-80
2022/04/08 11:51:09;;;;;;;4.85;1.10;;;11.40;80.50;;;;;;5032973;28;20200;-80
2022/04/08 11:54:00;;;;;;;3.03;1.20;;;11.50;80.00;;;;;;5032909;28;20173;-81
2022/04/08 11:56:27;;;;;;;2.97;0.98;;;11.60;76.20;;;;;;5033186;28;20720;-81
2022/04/08 11:59:01;;;;;;;2.70;1.02;;;11.70;77.50;;;;;;5013971;28;20597;-80
2022/04/08 12:01:34;;;;;;;4.50;1.00;;;11.90;75.80;;;;;;5029028;28;20178;-82
2022/04/08 12:04:08;;;;;;;4.28;1.30;;;12.00;75.70;;;;;;5033447;28;20233;-80
2022/04/08 12:06:41;;;;;;;5.60;1.30;;;11.90;77.20;;;;;;5032809;28;20171;-84
2022/04/08 12:09:08;;;;;;;4.10;0.90;;;12.00;76.40;;;;;;4999411;28;20192;-82
2022/04/08 12:11:36;;;;;;;2.90;1.08;;;12.00;74.90;;;;;;5015306;28;20184;-86
2022/04/08 12:14:05;;;;;;;2.17;0.65;;;12.20;74.90;;;;;;5015653;28;20220;-81
2022/04/08 12:16:32;;;;;;;2.67;1.40;;;12.30;70.90;;;;;;5033203;28;20330;-80
2022/04/08 12:18:58;;;;;;;3.47;1.13;;;12.30;74.10;;;;;;5015427;28;20180;-80
2022/04/08 12:21:26;;;;;;;3.85;1.60;;;12.10;78.20;;;;;;5015282;28;20666;-79
2022/04/08 12:23:58;;;;;;;3.55;1.50;;;12.10;82.00;;;;;;5032623;28;20177;-80
2022/04/08 12:26:32;;;;;;;2.83;1.10;;;12.40;84.50;;;;;;5032144;28;20177;-80
2022/04/08 12:29:13;;;;;;;1.27;1.05;;;12.90;77.50;;;;;;5032679;28;20172;-81
2022/04/08 12:31:49;;;;;;;2.55;1.10;;;13.30;71.60;;;;;;5032385;28;20230;-81
2022/04/08 12:34:16;;;;;;;12.32;1.20;;;13.60;72.30;;;;;;5033130;28;20204;-80
2022/04/08 12:36:47;;;;;;;4.22;1.40;;;13.60;68.90;;;;;;5045827;28;20609;-80
2022/04/08 12:39:13;;;;;;;4.80;1.20;;;13.10;72.30;;;;;;5036502;28;20638;-80
2022/04/08 12:41:47;;;;;;;5.28;1.73;;;12.70;74.10;;;;;;5032550;28;20208;-85
2022/04/08 12:44:13;;;;;;;7.20;1.30;;;12.50;76.10;;;;;;5014996;28;20581;-79
2022/04/08 12:46:39;;;;;;;1.13;1.02;;;12.40;75.90;;;;;;5032170;28;20212;-85
2022/04/08 12:49:06;;;;;;;5.90;1.30;;;12.10;74.70;;;;;;5034275;28;20172;-81
2022/04/08 12:51:32;;;;;;;2.70;1.60;;;11.90;84.20;;;;;;5035955;28;20181;-80
2022/04/08 12:53:58;;;;;;;3.25;1.30;;;11.70;93.10;;;;;;5018849;28;20196;-81
2022/04/08 12:56:26;;;;;;;3.17;1.38;;;11.80;92.30;;;;;;5035971;28;20184;-81